createdAt,value
2022-09-30T00:01:35.567Z,90.98
2022-09-30T00:04:04.116Z,91.01
2022-09-30T00:06:32.573Z,91.14
2022-09-30T00:09:00.540Z,90.60
2022-09-30T00:11:31.216Z,90.13
2022-09-30T00:14:01.226Z,90.79
2022-09-30T00:16:31.781Z,90.17
2022-09-30T00:19:00.628Z,90.37
2022-09-30T00:21:29.295Z,90.47
2022-09-30T00:23:57.883Z,89.98
2022-09-30T00:26:25.990Z,89.72
2022-09-30T00:28:55.418Z,89.60
2022-09-30T00:31:26.228Z,88.66
2022-09-30T00:34:08.135Z,88.31
2022-09-30T00:36:38.550Z,89.43
2022-09-30T00:39:08.197Z,89.04
2022-09-30T00:41:37.685Z,89.35
2022-09-30T00:44:38.731Z,88.37
2022-09-30T00:47:25.693Z,87.84
2022-09-30T00:49:54.331Z,87.63
2022-09-30T00:52:22.388Z,86.87
2022-09-30T00:54:51.391Z,87.06
2022-09-30T00:57:19.505Z,87.19
2022-09-30T00:59:51.679Z,87.80
2022-09-30T01:02:21.539Z,87.79
2022-09-30T01:04:49.602Z,88.30
2022-09-30T01:07:17.671Z,88.26
2022-09-30T01:09:46.230Z,88.43
2022-09-30T01:12:17.821Z,88.80
2022-09-30T01:14:51.255Z,88.79
2022-09-30T01:17:30.012Z,88.86
2022-09-30T01:20:19.770Z,89.54
2022-09-30T01:23:00.027Z,90.12
2022-09-30T01:25:54.261Z,90.91
2022-09-30T01:28:51.411Z,90.92
2022-09-30T01:31:34.405Z,90.78
2022-09-30T01:34:10.658Z,90.76
2022-09-30T01:36:49.976Z,90.47
2022-09-30T01:39:29.055Z,90.93
2022-09-30T01:42:06.592Z,91.06
2022-09-30T01:44:44.857Z,90.89
2022-09-30T01:47:22.154Z,90.59
2022-09-30T01:49:54.990Z,90.70
2022-09-30T01:52:28.283Z,90.52
2022-09-30T01:55:03.124Z,91.15
2022-09-30T01:57:37.046Z,91.51
2022-09-30T02:00:07.886Z,91.73
2022-09-30T02:02:41.319Z,91.87
2022-09-30T02:05:15.326Z,91.97
2022-09-30T02:07:48.739Z,92.50
2022-09-30T02:10:20.730Z,93.34
2022-09-30T02:12:55.234Z,93.81
2022-09-30T02:15:26.131Z,93.87
2022-09-30T02:18:00.038Z,95.33
2022-09-30T02:20:28.817Z,94.86
2022-09-30T02:23:02.163Z,94.01
2022-09-30T02:25:36.255Z,94.23
2022-09-30T02:28:08.517Z,93.08
2022-09-30T02:30:39.432Z,92.74
2022-09-30T02:33:14.742Z,92.38
2022-09-30T02:35:49.034Z,92.14
2022-09-30T02:38:20.850Z,92.02
2022-09-30T02:40:53.846Z,91.47
2022-09-30T02:43:22.565Z,91.14
2022-09-30T02:46:06.874Z,91.35
2022-09-30T02:48:44.097Z,91.24
2022-09-30T02:51:18.982Z,91.35
2022-09-30T02:53:55.393Z,90.94
2022-09-30T02:56:29.013Z,91.16
2022-09-30T02:58:58.788Z,91.42
2022-09-30T03:01:27.049Z,91.34
2022-09-30T03:03:59.465Z,91.11
2022-09-30T03:06:28.205Z,91.44
2022-09-30T03:08:56.433Z,91.43
2022-09-30T03:11:27.548Z,91.44
2022-09-30T03:14:25.497Z,91.52
2022-09-30T03:17:25.961Z,91.83
2022-09-30T03:20:10.288Z,91.98
2022-09-30T03:22:57.058Z,91.64
2022-09-30T03:25:35.566Z,91.75
2022-09-30T03:28:14.601Z,91.81
2022-09-30T03:30:51.091Z,91.69
2022-09-30T03:33:25.221Z,92.46
2022-09-30T03:36:02.558Z,91.82
2022-09-30T03:38:44.524Z,93.04
2022-09-30T03:41:18.201Z,95.48
2022-09-30T03:43:52.137Z,96.71
2022-09-30T03:46:24.059Z,97.50
2022-09-30T03:48:55.466Z,99.30
2022-09-30T03:51:26.073Z,100.00
2022-09-30T03:53:55.472Z,100.00
2022-09-30T03:56:28.432Z,99.58
2022-09-30T03:58:57.018Z,99.65
2022-09-30T04:01:25.202Z,99.90
2022-09-30T04:03:54.685Z,100.00
2022-09-30T04:06:26.155Z,100.00
2022-09-30T04:08:55.015Z,100.00
2022-09-30T04:11:22.944Z,100.00
2022-09-30T04:13:50.866Z,100.00
2022-09-30T04:16:19.056Z,100.00
2022-09-30T04:18:47.029Z,100.00
2022-09-30T04:21:16.244Z,100.00
2022-09-30T04:23:45.741Z,100.00
2022-09-30T04:26:16.569Z,100.00
2022-09-30T04:28:44.968Z,100.00
2022-09-30T04:31:14.307Z,100.00
2022-09-30T04:33:42.408Z,99.24
2022-09-30T04:36:11.325Z,98.76
2022-09-30T04:38:39.369Z,98.91
2022-09-30T04:41:09.357Z,98.68
2022-09-30T04:43:37.269Z,98.06
2022-09-30T04:46:05.392Z,97.55
2022-09-30T04:48:33.441Z,96.85
2022-09-30T04:51:01.386Z,96.73
2022-09-30T04:53:30.364Z,96.71
2022-09-30T04:56:02.622Z,96.91
2022-09-30T04:58:36.796Z,96.57
2022-09-30T05:01:07.034Z,97.49
2022-09-30T05:03:35.855Z,98.14
2022-09-30T05:06:05.039Z,98.92
2022-09-30T05:08:33.901Z,97.63
2022-09-30T05:11:03.515Z,96.87
2022-09-30T05:13:35.213Z,95.76
2022-09-30T05:16:04.187Z,94.54
2022-09-30T05:18:34.241Z,94.29
2022-09-30T05:21:02.879Z,94.68
2022-09-30T05:23:33.173Z,94.30
2022-09-30T05:26:03.511Z,93.31
2022-09-30T05:28:33.853Z,92.52
2022-09-30T05:31:06.241Z,92.39
2022-09-30T05:33:35.863Z,92.40
2022-09-30T05:36:05.912Z,92.02
2022-09-30T05:38:34.437Z,90.38
2022-09-30T05:41:08.505Z,90.26
2022-09-30T05:43:39.092Z,88.75
2022-09-30T05:46:07.377Z,87.44
2022-09-30T05:48:35.471Z,86.63
2022-09-30T05:51:03.491Z,86.04
2022-09-30T05:53:32.406Z,86.83
2022-09-30T05:56:00.649Z,85.26
2022-09-30T05:58:28.612Z,84.60
2022-09-30T06:01:03.599Z,84.73
2022-09-30T06:03:35.238Z,82.58
2022-09-30T06:06:03.364Z,82.09
2022-09-30T06:08:31.622Z,80.54
2022-09-30T06:10:59.978Z,77.94
2022-09-30T06:13:28.412Z,77.44
2022-09-30T06:15:59.064Z,76.52
2022-09-30T06:18:27.641Z,74.59
2022-09-30T06:20:58.285Z,75.23
2022-09-30T06:23:26.528Z,75.64
2022-09-30T06:25:55.529Z,76.93
2022-09-30T06:28:24.772Z,73.98
2022-09-30T06:30:52.725Z,73.34
2022-09-30T06:33:22.991Z,70.40
2022-09-30T06:35:51.859Z,68.88
2022-09-30T06:38:21.310Z,66.45
2022-09-30T06:40:50.214Z,66.16
2022-09-30T06:43:18.469Z,68.41
2022-09-30T06:45:47.425Z,66.21
2022-09-30T06:48:20.342Z,60.64
2022-09-30T06:51:02.185Z,62.72
2022-09-30T06:53:30.483Z,64.58
2022-09-30T06:55:59.107Z,65.03
2022-09-30T06:58:27.065Z,62.43
2022-09-30T07:00:58.902Z,60.74
2022-09-30T07:03:29.485Z,62.04
2022-09-30T07:06:00.262Z,60.52
2022-09-30T07:08:31.807Z,56.58
2022-09-30T07:11:00.160Z,58.12
2022-09-30T07:13:28.437Z,56.57
2022-09-30T07:15:58.124Z,56.27
2022-09-30T07:18:28.927Z,58.64
2022-09-30T07:20:58.979Z,57.87
2022-09-30T07:23:27.446Z,58.34
2022-09-30T07:25:57.874Z,55.60
2022-09-30T07:28:32.142Z,55.38
2022-09-30T07:31:30.702Z,56.43
2022-09-30T07:33:52.403Z,57.54
2022-09-30T07:36:31.786Z,58.22
2022-09-30T07:39:06.357Z,55.52
2022-09-30T07:41:36.710Z,57.20
2022-09-30T07:44:06.429Z,55.49
2022-09-30T07:46:36.346Z,55.43
2022-09-30T07:49:06.863Z,54.18
2022-09-30T07:51:38.361Z,55.52
2022-09-30T07:54:08.977Z,54.56
2022-09-30T07:57:05.493Z,51.86
2022-09-30T07:59:27.375Z,52.84
2022-09-30T08:01:55.552Z,54.81
2022-09-30T08:04:25.685Z,51.02
2022-09-30T08:06:57.400Z,51.99
2022-09-30T08:09:27.657Z,50.48
2022-09-30T08:11:56.285Z,53.73
2022-09-30T08:14:25.975Z,52.47
2022-09-30T08:16:54.294Z,53.85
2022-09-30T08:19:24.045Z,51.21
2022-09-30T08:21:54.090Z,49.68
2022-09-30T08:24:26.173Z,50.17
2022-09-30T08:26:54.881Z,50.08
2022-09-30T08:29:53.406Z,50.10
2022-09-30T08:32:11.082Z,49.18
2022-09-30T08:34:39.024Z,49.42
2022-09-30T08:37:09.456Z,48.77
2022-09-30T08:39:39.469Z,45.82
2022-09-30T08:42:37.992Z,45.64
2022-09-30T08:45:15.495Z,45.66
2022-09-30T08:47:51.099Z,46.17
2022-09-30T08:50:30.751Z,46.46
2022-09-30T08:53:02.742Z,45.87
2022-09-30T08:55:39.874Z,46.54
2022-09-30T08:58:15.360Z,43.27
2022-09-30T09:00:44.537Z,45.29
2022-09-30T09:03:15.465Z,42.83
2022-09-30T09:05:53.234Z,41.73
2022-09-30T09:08:30.997Z,43.91
2022-09-30T09:11:09.107Z,43.92
2022-09-30T09:13:47.664Z,41.96
2022-09-30T09:16:26.293Z,40.56
2022-09-30T09:19:02.227Z,43.22
2022-09-30T09:21:39.897Z,40.14
2022-09-30T09:24:15.981Z,40.46
2022-09-30T09:26:46.023Z,40.56
2022-09-30T09:29:29.047Z,41.16
2022-09-30T09:31:58.467Z,40.51
2022-09-30T09:34:28.105Z,42.21
2022-09-30T09:37:11.165Z,43.02
2022-09-30T09:40:04.077Z,39.51
2022-09-30T09:42:51.067Z,40.29
2022-09-30T09:45:28.073Z,39.99
2022-09-30T09:47:57.322Z,41.88
2022-09-30T09:50:29.016Z,40.86
2022-09-30T09:53:11.186Z,39.01
2022-09-30T09:55:39.451Z,41.58
2022-09-30T09:58:13.978Z,42.21
2022-09-30T10:01:00.303Z,41.78
2022-09-30T10:03:28.826Z,41.01
2022-09-30T10:06:03.173Z,39.85
2022-09-30T10:08:33.505Z,40.33
2022-09-30T10:11:03.594Z,40.26
2022-09-30T10:13:42.203Z,40.54
2022-09-30T10:16:27.406Z,41.69
2022-09-30T10:18:56.058Z,41.64
2022-09-30T10:21:26.426Z,40.74
2022-09-30T10:23:54.632Z,41.71
2022-09-30T10:26:24.780Z,38.64
2022-09-30T10:28:56.023Z,40.42
2022-09-30T10:31:25.553Z,39.49
2022-09-30T10:33:58.705Z,41.02
2022-09-30T10:36:31.962Z,40.42
2022-09-30T10:39:05.692Z,39.99
2022-09-30T10:41:36.982Z,42.39
2022-09-30T10:44:14.070Z,41.92
2022-09-30T10:46:44.822Z,42.41
2022-09-30T10:49:29.350Z,41.53
2022-09-30T10:51:58.515Z,42.16
2022-09-30T10:54:44.605Z,39.85
2022-09-30T10:57:16.875Z,39.46
2022-09-30T10:59:47.997Z,39.69
2022-09-30T11:02:26.331Z,38.04
2022-09-30T11:05:03.291Z,40.36
2022-09-30T11:07:34.846Z,42.28
2022-09-30T11:10:07.954Z,40.59
2022-09-30T11:12:40.075Z,38.83
2022-09-30T11:15:17.422Z,39.41
2022-09-30T11:17:54.978Z,40.55
2022-09-30T11:20:26.401Z,39.12
2022-09-30T11:23:00.438Z,40.29
2022-09-30T11:25:38.417Z,38.64
2022-09-30T11:28:38.842Z,38.49
2022-09-30T11:31:20.051Z,40.25
2022-09-30T11:34:01.446Z,40.86
2022-09-30T11:36:42.150Z,39.81
2022-09-30T11:39:30.094Z,37.76
2022-09-30T11:42:06.494Z,37.17
2022-09-30T11:44:36.992Z,40.56
2022-09-30T11:47:24.645Z,40.92
2022-09-30T11:50:09.275Z,39.46
2022-09-30T11:52:47.100Z,40.32
2022-09-30T11:55:38.278Z,42.36
2022-09-30T11:58:36.212Z,42.08
2022-09-30T12:01:05.349Z,39.38
2022-09-30T12:03:39.652Z,40.30
2022-09-30T12:06:15.570Z,41.67
2022-09-30T12:08:50.341Z,41.22
2022-09-30T12:11:23.226Z,38.69
2022-09-30T12:13:54.710Z,41.83
2022-09-30T12:16:25.911Z,39.59
2022-09-30T12:19:00.844Z,41.66
2022-09-30T12:21:34.165Z,42.00
2022-09-30T12:24:11.517Z,39.04
2022-09-30T12:26:42.279Z,41.51
2022-09-30T12:29:36.374Z,39.72
2022-09-30T12:32:21.532Z,43.98
2022-09-30T12:35:03.562Z,39.91
2022-09-30T12:37:44.259Z,40.36
2022-09-30T12:40:35.180Z,40.97
2022-09-30T12:43:20.346Z,41.34
2022-09-30T12:46:20.939Z,38.42
2022-09-30T12:48:53.632Z,41.46
2022-09-30T12:51:27.298Z,41.06
2022-09-30T12:54:04.611Z,45.19
2022-09-30T12:56:34.208Z,42.71
2022-09-30T12:59:03.921Z,43.00
2022-09-30T13:01:36.160Z,43.15
2022-09-30T13:04:33.287Z,41.05
2022-09-30T13:07:18.602Z,42.80
2022-09-30T13:10:28.254Z,42.24
2022-09-30T13:13:23.823Z,43.64
2022-09-30T13:15:52.330Z,44.21
2022-09-30T13:18:57.506Z,40.02
2022-09-30T13:21:26.251Z,41.89
2022-09-30T13:23:57.104Z,44.23
2022-09-30T13:26:46.418Z,44.31
2022-09-30T13:29:50.446Z,44.00
2022-09-30T13:32:34.427Z,45.68
2022-09-30T13:35:02.321Z,41.95
2022-09-30T13:37:37.891Z,44.99
2022-09-30T13:40:18.366Z,43.82
2022-09-30T13:42:56.058Z,42.45
2022-09-30T13:45:35.799Z,43.11
2022-09-30T13:48:11.965Z,42.14
2022-09-30T13:50:46.624Z,42.00
2022-09-30T13:53:20.912Z,43.87
2022-09-30T13:55:53.897Z,44.48
2022-09-30T13:58:53.991Z,45.43
2022-09-30T14:01:43.692Z,45.83
2022-09-30T14:04:47.530Z,47.24
2022-09-30T14:07:22.908Z,47.39
2022-09-30T14:10:12.197Z,47.91
2022-09-30T14:12:55.802Z,48.64
2022-09-30T14:15:50.448Z,50.72
2022-09-30T14:18:49.919Z,49.71
2022-09-30T14:21:35.375Z,49.01
2022-09-30T14:24:10.456Z,49.35
2022-09-30T14:26:56.028Z,48.73
2022-09-30T14:29:34.297Z,48.31
2022-09-30T14:32:11.513Z,48.46
2022-09-30T14:34:40.064Z,48.82
2022-09-30T14:37:18.510Z,49.86
2022-09-30T14:39:49.564Z,50.26
2022-09-30T14:42:28.169Z,51.01
2022-09-30T14:45:04.561Z,51.58
2022-09-30T14:47:35.291Z,52.01
2022-09-30T14:50:04.666Z,51.89
2022-09-30T14:52:38.313Z,51.17
2022-09-30T14:55:21.216Z,51.25
2022-09-30T14:57:50.239Z,51.02
2022-09-30T15:00:27.997Z,52.01
2022-09-30T15:02:56.365Z,52.68
2022-09-30T15:05:26.649Z,53.07
2022-09-30T15:07:55.784Z,53.98
2022-09-30T15:10:25.526Z,56.20
2022-09-30T15:12:55.963Z,56.17
2022-09-30T15:15:35.746Z,55.06
2022-09-30T15:18:26.187Z,52.96
2022-09-30T15:20:55.316Z,53.19
2022-09-30T15:23:27.523Z,52.69
2022-09-30T15:25:57.468Z,53.57
2022-09-30T15:28:25.996Z,53.21
2022-09-30T15:30:58.778Z,52.73
2022-09-30T15:33:31.853Z,52.43
2022-09-30T15:36:05.678Z,52.57
2022-09-30T15:38:35.677Z,53.37
2022-09-30T15:41:07.078Z,53.75
2022-09-30T15:43:39.589Z,54.33
2022-09-30T15:46:28.174Z,55.05
2022-09-30T15:48:59.199Z,56.55
2022-09-30T15:51:39.330Z,57.09
2022-09-30T15:54:32.022Z,56.81
2022-09-30T15:57:03.381Z,57.81
2022-09-30T16:00:08.793Z,58.45
2022-09-30T16:02:38.369Z,59.15
2022-09-30T16:05:08.041Z,59.57
2022-09-30T16:07:36.282Z,60.44
2022-09-30T16:10:04.821Z,59.84
2022-09-30T16:12:36.358Z,60.04
2022-09-30T16:15:12.315Z,60.55
2022-09-30T16:17:47.162Z,60.65
2022-09-30T16:20:24.334Z,60.80
2022-09-30T16:22:55.074Z,61.30
2022-09-30T16:25:26.593Z,61.56
2022-09-30T16:27:58.719Z,61.33
2022-09-30T16:30:27.596Z,61.44
2022-09-30T16:32:59.445Z,62.45
2022-09-30T16:35:29.389Z,62.55
2022-09-30T16:38:02.901Z,63.01
2022-09-30T16:40:32.522Z,63.26
2022-09-30T16:43:03.231Z,63.63
2022-09-30T16:45:34.059Z,63.66
2022-09-30T16:48:07.117Z,64.01
2022-09-30T16:50:39.903Z,64.29
2022-09-30T16:53:09.814Z,64.55
2022-09-30T16:55:37.881Z,65.13
2022-09-30T16:58:05.980Z,65.40
2022-09-30T17:00:34.612Z,65.31
2022-09-30T17:03:04.117Z,65.04
2022-09-30T17:05:32.130Z,64.83
2022-09-30T17:08:01.085Z,65.10
2022-09-30T17:10:31.615Z,65.35
2022-09-30T17:13:01.124Z,65.78
2022-09-30T17:15:30.817Z,65.81
2022-09-30T17:17:59.028Z,65.74
2022-09-30T17:20:28.531Z,66.40
2022-09-30T17:22:56.549Z,66.48
2022-09-30T17:25:24.555Z,66.42
2022-09-30T17:27:52.638Z,66.68
2022-09-30T17:30:21.535Z,67.00
2022-09-30T17:32:49.636Z,67.55
2022-09-30T17:35:17.782Z,67.68
2022-09-30T17:37:47.925Z,67.33
2022-09-30T17:40:33.278Z,67.55
2022-09-30T17:43:11.264Z,67.52
2022-09-30T17:45:41.182Z,67.26
2022-09-30T17:48:09.830Z,67.83
2022-09-30T17:50:38.634Z,67.09
2022-09-30T17:53:08.051Z,67.97
2022-09-30T17:55:36.296Z,68.20
2022-09-30T17:58:04.425Z,67.94
2022-09-30T18:00:33.683Z,68.39
2022-09-30T18:03:02.903Z,68.15
2022-09-30T18:05:32.018Z,69.18
2022-09-30T18:08:00.249Z,68.73
2022-09-30T18:10:29.794Z,69.08
2022-09-30T18:12:59.764Z,69.35
2022-09-30T18:15:28.199Z,68.24
2022-09-30T18:17:56.218Z,69.43
2022-09-30T18:20:25.649Z,69.71
2022-09-30T18:22:53.889Z,69.90
2022-09-30T18:25:22.919Z,70.41
2022-09-30T18:27:54.978Z,69.93
2022-09-30T18:30:23.414Z,69.91
2022-09-30T18:32:53.100Z,70.92
2022-09-30T18:35:24.528Z,70.98
2022-09-30T18:37:54.026Z,70.59
2022-09-30T18:40:26.002Z,70.71
2022-09-30T18:42:58.599Z,70.50
2022-09-30T18:45:27.163Z,71.34
2022-09-30T18:47:56.386Z,71.67
2022-09-30T18:50:25.287Z,71.82
2022-09-30T18:52:53.609Z,72.06
2022-09-30T18:55:22.064Z,71.86
2022-09-30T18:57:50.567Z,71.94
2022-09-30T19:00:20.677Z,71.67
2022-09-30T19:02:48.767Z,71.76
2022-09-30T19:05:18.002Z,72.18
2022-09-30T19:07:46.061Z,71.58
2022-09-30T19:10:14.369Z,72.20
2022-09-30T19:12:44.647Z,72.63
2022-09-30T19:15:16.166Z,71.81
2022-09-30T19:17:45.950Z,71.54
2022-09-30T19:20:16.025Z,72.13
2022-09-30T19:22:44.046Z,72.30
2022-09-30T19:25:13.094Z,72.41
2022-09-30T19:27:42.881Z,71.93
2022-09-30T19:30:13.500Z,71.62
2022-09-30T19:32:41.865Z,72.39
2022-09-30T19:35:14.165Z,72.09
2022-09-30T19:37:54.910Z,72.37
2022-09-30T19:40:28.229Z,71.78
2022-09-30T19:42:57.517Z,71.78
2022-09-30T19:45:26.386Z,72.99
2022-09-30T19:47:54.618Z,72.75
2022-09-30T19:50:24.212Z,71.01
2022-09-30T19:52:57.325Z,70.30
2022-09-30T19:55:26.153Z,70.64
2022-09-30T19:57:54.532Z,72.97
2022-09-30T20:00:22.535Z,74.28
2022-09-30T20:02:50.765Z,73.78
2022-09-30T20:05:19.129Z,73.93
2022-09-30T20:07:51.201Z,74.99
2022-09-30T20:10:19.934Z,74.76
2022-09-30T20:12:47.991Z,74.34
2022-09-30T20:15:33.509Z,73.38
2022-09-30T20:18:01.510Z,72.89
2022-09-30T20:20:42.836Z,72.46
2022-09-30T20:23:12.538Z,73.45
2022-09-30T20:25:40.617Z,73.19
2022-09-30T20:28:09.346Z,73.29
2022-09-30T20:30:45.646Z,74.69
2022-09-30T20:33:18.731Z,74.30
2022-09-30T20:35:46.990Z,73.67
2022-09-30T20:38:24.998Z,73.92
2022-09-30T20:40:56.733Z,76.31
2022-09-30T20:43:26.845Z,77.86
2022-09-30T20:45:56.500Z,77.62
2022-09-30T20:48:24.548Z,77.19
2022-09-30T20:50:52.584Z,76.04
2022-09-30T20:53:22.834Z,75.96
2022-09-30T20:55:51.313Z,75.64
2022-09-30T20:58:19.521Z,77.35
2022-09-30T21:00:47.699Z,78.19
2022-09-30T21:03:15.847Z,77.81
2022-09-30T21:05:52.435Z,76.42
2022-09-30T21:08:21.906Z,77.11
2022-09-30T21:10:49.965Z,77.37
2022-09-30T21:13:18.017Z,77.88
2022-09-30T21:15:46.050Z,77.25
2022-09-30T21:18:14.120Z,77.46
2022-09-30T21:20:42.173Z,77.52
2022-09-30T21:23:10.265Z,78.15
2022-09-30T21:25:40.779Z,76.31
2022-09-30T21:28:08.863Z,75.71
2022-09-30T21:30:42.339Z,77.23
2022-09-30T21:33:10.371Z,76.78
2022-09-30T21:35:38.374Z,77.04
2022-09-30T21:38:06.406Z,76.81
2022-09-30T21:40:34.438Z,76.63
2022-09-30T21:43:03.954Z,76.58
2022-09-30T21:45:32.010Z,76.51
2022-09-30T21:48:04.062Z,80.25
2022-09-30T21:50:32.350Z,78.58
2022-09-30T21:53:00.553Z,79.62
2022-09-30T21:55:29.260Z,80.64
2022-09-30T21:57:57.288Z,79.83
2022-09-30T22:00:26.749Z,79.55
2022-09-30T22:02:54.754Z,79.00
2022-09-30T22:05:22.778Z,78.88
2022-09-30T22:07:51.003Z,79.04
2022-09-30T22:10:19.010Z,79.98
2022-09-30T22:12:47.012Z,79.77
2022-09-30T22:15:15.036Z,77.84
2022-09-30T22:17:44.459Z,78.27
2022-09-30T22:20:13.365Z,78.98
2022-09-30T22:22:41.692Z,77.54
2022-09-30T22:25:10.834Z,79.68
2022-09-30T22:27:38.851Z,79.98
2022-09-30T22:30:08.265Z,78.74
2022-09-30T22:32:36.409Z,78.38
2022-09-30T22:35:26.336Z,77.67
2022-09-30T22:38:11.650Z,77.68
2022-09-30T22:40:39.748Z,78.31
2022-09-30T22:43:07.769Z,78.69
2022-09-30T22:45:36.128Z,78.21
2022-09-30T22:48:04.669Z,78.45
2022-09-30T22:50:36.512Z,78.93
2022-09-30T22:53:04.526Z,79.29
2022-09-30T22:55:33.318Z,79.47
2022-09-30T22:58:01.323Z,79.71
2022-09-30T23:00:29.383Z,79.79
2022-09-30T23:02:57.415Z,79.73
2022-09-30T23:05:26.795Z,80.12
2022-09-30T23:07:56.437Z,79.94
2022-09-30T23:10:24.543Z,80.44
2022-09-30T23:12:53.494Z,81.08
2022-09-30T23:15:21.537Z,80.64
2022-09-30T23:17:50.168Z,80.56
2022-09-30T23:20:18.194Z,80.95
2022-09-30T23:22:47.113Z,81.06
2022-09-30T23:25:16.594Z,80.86
2022-09-30T23:27:49.025Z,80.79
2022-09-30T23:30:17.406Z,81.13
2022-09-30T23:32:45.420Z,81.27
2022-09-30T23:35:14.166Z,81.06
2022-09-30T23:37:42.182Z,80.69
2022-09-30T23:40:11.178Z,80.94
2022-09-30T23:42:40.581Z,81.31
2022-09-30T23:45:09.807Z,81.20
2022-09-30T23:47:37.809Z,81.37
2022-09-30T23:50:06.378Z,81.40
2022-09-30T23:52:34.903Z,81.76
2022-09-30T23:55:03.243Z,82.02
2022-09-30T23:57:31.298Z,82.22
